createdAt,value
2017-12-25T00:02:02.972Z,3.63
2017-12-25T00:04:29.891Z,2.10
2017-12-25T00:06:56.138Z,3.43
2017-12-25T00:09:23.055Z,2.07
2017-12-25T00:11:50.024Z,6.53
2017-12-25T00:14:16.955Z,1.97
2017-12-25T00:16:43.262Z,2.73
2017-12-25T00:19:09.436Z,1.97
2017-12-25T00:21:36.355Z,1.10
2017-12-25T00:24:02.676Z,1.50
2017-12-25T00:26:28.993Z,1.40
2017-12-25T00:28:55.183Z,2.90
2017-12-25T00:31:22.131Z,1.20
2017-12-25T00:33:48.410Z,1.53
2017-12-25T00:36:14.631Z,1.40
2017-12-25T00:38:40.812Z,2.37
2017-12-25T00:41:08.094Z,3.67
2017-12-25T00:43:34.271Z,1.20
2017-12-25T00:46:00.504Z,1.53
2017-12-25T00:48:26.684Z,2.63
2017-12-25T00:50:53.130Z,4.00
2017-12-25T00:53:19.307Z,1.10
2017-12-25T00:55:46.258Z,2.00
2017-12-25T00:58:13.241Z,2.87
2017-12-25T01:00:46.499Z,1.83
2017-12-25T01:03:13.443Z,1.23
2017-12-25T01:05:39.683Z,1.03
2017-12-25T01:08:05.893Z,2.20
2017-12-25T01:10:32.814Z,1.40
2017-12-25T01:12:59.039Z,1.13
2017-12-25T01:15:25.223Z,1.40
2017-12-25T01:17:51.400Z,1.07
2017-12-25T01:20:17.821Z,1.43
2017-12-25T01:22:44.000Z,1.63
2017-12-25T01:25:10.216Z,1.00
2017-12-25T01:27:37.158Z,0.90
2017-12-25T01:30:04.100Z,0.90
2017-12-25T01:32:30.359Z,1.17
2017-12-25T01:34:56.539Z,0.70
2017-12-25T01:37:23.277Z,0.93
2017-12-25T01:39:49.483Z,5.03
2017-12-25T01:42:15.663Z,0.80
2017-12-25T01:44:42.602Z,0.70
2017-12-25T01:47:15.843Z,0.77
2017-12-25T01:49:42.053Z,0.83
2017-12-25T01:52:08.261Z,1.30
2017-12-25T01:54:35.283Z,1.40
2017-12-25T02:00:12.151Z,1.50
2017-12-25T02:02:38.491Z,1.10
2017-12-25T02:05:06.704Z,1.03
2017-12-25T02:07:45.338Z,1.37
2017-12-25T02:10:12.961Z,1.60
2017-12-25T02:12:39.851Z,0.83
2017-12-25T02:15:06.649Z,1.10
2017-12-25T02:17:34.310Z,1.33
2017-12-25T02:20:01.052Z,1.83
2017-12-25T02:22:28.036Z,1.30
2017-12-25T02:24:54.976Z,0.93
2017-12-25T02:27:21.923Z,1.43
2017-12-25T02:29:48.133Z,2.23
2017-12-25T02:32:14.340Z,1.20
2017-12-25T02:34:40.523Z,1.70
2017-12-25T02:37:07.520Z,1.10
2017-12-25T02:39:33.742Z,1.10
2017-12-25T02:42:00.181Z,1.60
2017-12-25T02:44:26.359Z,1.20
2017-12-25T02:46:53.303Z,1.10
2017-12-25T02:49:20.586Z,1.00
2017-12-25T02:51:46.766Z,1.63
2017-12-25T02:54:12.981Z,0.80
2017-12-25T02:56:39.167Z,1.83
2017-12-25T02:59:05.392Z,1.80
2017-12-25T03:01:31.580Z,1.43
2017-12-25T03:03:57.758Z,1.67
2017-12-25T03:06:23.984Z,1.17
2017-12-25T03:08:50.160Z,1.20
2017-12-25T03:11:16.431Z,0.80
2017-12-25T03:13:42.615Z,1.37
2017-12-25T03:16:08.850Z,1.80
2017-12-25T03:18:35.035Z,1.40
2017-12-25T03:21:01.216Z,1.77
2017-12-25T03:23:28.163Z,1.33
2017-12-25T03:25:54.375Z,1.63
2017-12-25T03:28:20.788Z,1.20
2017-12-25T03:30:46.968Z,1.30
2017-12-25T03:33:13.893Z,1.30
2017-12-25T03:35:40.104Z,1.87
2017-12-25T03:38:06.279Z,1.03
2017-12-25T03:40:32.647Z,2.60
2017-12-25T03:42:58.827Z,1.77
2017-12-25T03:45:25.747Z,1.47
2017-12-25T03:47:52.716Z,1.70
2017-12-25T03:50:19.639Z,2.40
2017-12-25T03:52:45.844Z,2.17
2017-12-25T03:55:12.024Z,3.70
2017-12-25T03:57:39.014Z,3.33
2017-12-25T04:00:05.200Z,1.70
2017-12-25T04:02:32.147Z,2.57
2017-12-25T04:04:59.092Z,1.30
2017-12-25T04:07:26.011Z,1.63
2017-12-25T04:09:52.225Z,3.30
2017-12-25T04:12:18.414Z,1.37
2017-12-25T04:14:44.619Z,1.10
2017-12-25T04:17:11.544Z,1.60
2017-12-25T04:19:37.923Z,1.77
2017-12-25T04:22:04.107Z,1.90
2017-12-25T04:24:30.597Z,6.13
2017-12-25T04:26:57.043Z,1.90
2017-12-25T04:29:23.219Z,3.03
2017-12-25T04:31:49.483Z,1.87
2017-12-25T04:34:15.691Z,3.03
2017-12-25T04:36:41.872Z,2.50
2017-12-25T04:39:08.075Z,1.40
2017-12-25T04:41:34.280Z,2.50
2017-12-25T04:44:00.649Z,3.53
2017-12-25T04:46:26.936Z,1.57
2017-12-25T04:48:53.864Z,2.30
2017-12-25T04:51:20.807Z,4.40
2017-12-25T04:53:47.011Z,2.10
2017-12-25T04:56:13.196Z,2.67
2017-12-25T04:58:40.155Z,1.90
2017-12-25T05:01:06.340Z,2.30
2017-12-25T05:03:33.263Z,1.37
2017-12-25T05:05:59.468Z,2.30
2017-12-25T05:08:25.643Z,1.97
2017-12-25T05:10:52.628Z,3.43
2017-12-25T05:13:18.840Z,2.70
2017-12-25T05:15:45.024Z,2.83
2017-12-25T05:18:11.231Z,3.63
2017-12-25T05:20:37.407Z,2.23
2017-12-25T05:23:04.363Z,2.37
2017-12-25T05:25:31.295Z,6.80
2017-12-25T05:27:58.263Z,3.13
2017-12-25T05:30:24.716Z,4.07
2017-12-25T05:32:50.891Z,3.93
2017-12-25T05:35:17.098Z,3.73
2017-12-25T05:37:43.280Z,1.90
2017-12-25T05:40:09.487Z,3.10
2017-12-25T05:42:36.420Z,3.00
2017-12-25T05:45:02.648Z,7.10
2017-12-25T05:47:29.612Z,6.63
2017-12-25T05:49:56.588Z,3.77
2017-12-25T05:52:22.772Z,1.50
2017-12-25T05:54:49.762Z,4.27
2017-12-25T05:57:15.963Z,3.70
2017-12-25T05:59:42.894Z,3.00
2017-12-25T06:02:09.107Z,2.60
2017-12-25T06:04:35.299Z,2.00
2017-12-25T06:07:01.678Z,2.67
2017-12-25T06:09:27.867Z,2.27
2017-12-25T06:11:54.044Z,3.20
2017-12-25T06:14:20.246Z,2.50
2017-12-25T06:16:46.432Z,1.20
2017-12-25T06:19:12.642Z,2.77
2017-12-25T06:21:39.572Z,2.30
2017-12-25T06:24:05.776Z,2.67
2017-12-25T06:26:31.956Z,1.50
2017-12-25T06:28:58.900Z,2.50
2017-12-25T06:31:25.820Z,2.40
2017-12-25T06:33:52.308Z,4.17
2017-12-25T06:36:18.512Z,2.23
2017-12-25T06:38:44.690Z,2.50
2017-12-25T06:41:10.896Z,2.07
2017-12-25T06:43:37.084Z,2.50
2017-12-25T06:46:04.039Z,3.87
2017-12-25T06:48:30.984Z,2.43
2017-12-25T06:50:57.932Z,2.00
2017-12-25T06:53:24.855Z,2.50
2017-12-25T06:55:51.059Z,2.20
2017-12-25T06:58:17.246Z,2.43
2017-12-25T07:00:43.448Z,2.87
2017-12-25T07:03:10.394Z,2.40
2017-12-25T07:05:37.363Z,2.90
2017-12-25T07:08:03.547Z,1.63
2017-12-25T07:10:29.732Z,3.00
2017-12-25T07:12:55.947Z,1.70
2017-12-25T07:15:22.132Z,1.80
2017-12-25T07:17:48.358Z,1.03
2017-12-25T07:20:14.859Z,1.80
2017-12-25T07:22:41.036Z,2.03
2017-12-25T07:25:07.288Z,1.30
2017-12-25T07:27:34.196Z,1.37
2017-12-25T07:30:00.404Z,1.83
2017-12-25T07:32:26.588Z,2.10
2017-12-25T07:34:53.576Z,1.40
2017-12-25T07:37:19.756Z,1.50
2017-12-25T07:39:46.679Z,1.23
2017-12-25T07:42:13.092Z,1.93
2017-12-25T07:44:39.275Z,1.30
2017-12-25T07:47:05.522Z,1.03
2017-12-25T07:49:31.736Z,1.20
2017-12-25T07:51:57.921Z,4.93
2017-12-25T07:54:24.128Z,1.23
2017-12-25T07:56:50.312Z,1.20
2017-12-25T07:59:17.260Z,1.47
2017-12-25T08:01:44.187Z,1.93
2017-12-25T08:04:10.588Z,2.50
2017-12-25T08:06:36.772Z,2.83
2017-12-25T08:09:03.384Z,1.57
2017-12-25T08:11:29.756Z,1.13
2017-12-25T08:13:55.939Z,1.27
2017-12-25T08:16:22.128Z,3.13
2017-12-25T08:18:48.712Z,2.70
2017-12-25T08:21:16.380Z,2.63
2017-12-25T08:23:43.329Z,1.37
2017-12-25T08:26:10.145Z,1.00
2017-12-25T08:28:36.384Z,1.37
2017-12-25T08:31:02.569Z,1.13
2017-12-25T08:33:28.751Z,1.70
2017-12-25T08:35:55.700Z,1.00
2017-12-25T08:38:22.623Z,0.70
2017-12-25T08:40:49.591Z,1.83
2017-12-25T08:43:16.519Z,1.37
2017-12-25T08:45:42.724Z,1.00
2017-12-25T08:48:08.928Z,1.07
2017-12-25T08:50:35.132Z,1.83
2017-12-25T08:53:02.057Z,0.80
2017-12-25T08:55:28.292Z,0.73
2017-12-25T08:57:54.476Z,1.77
2017-12-25T09:00:20.744Z,1.13
2017-12-25T09:02:46.944Z,1.37
2017-12-25T09:05:13.141Z,1.50
2017-12-25T09:07:39.371Z,1.50
2017-12-25T09:10:05.552Z,1.37
2017-12-25T09:12:32.590Z,0.93
2017-12-25T09:14:58.772Z,1.33
2017-12-25T09:17:25.601Z,1.00
2017-12-25T09:19:51.803Z,1.10
2017-12-25T09:22:18.016Z,1.20
2017-12-25T09:24:44.200Z,0.90
2017-12-25T09:27:10.419Z,1.70
2017-12-25T09:29:37.703Z,1.20
2017-12-25T09:32:04.157Z,0.90
2017-12-25T09:34:30.339Z,1.87
2017-12-25T09:36:57.259Z,1.23
2017-12-25T09:39:23.461Z,1.23
2017-12-25T09:41:49.684Z,0.90
2017-12-25T09:44:15.873Z,0.60
2017-12-25T09:46:42.056Z,0.50
2017-12-25T09:49:08.287Z,1.13
2017-12-25T09:51:34.468Z,2.77
2017-12-25T09:54:03.630Z,0.70
2017-12-25T09:56:30.556Z,0.90
2017-12-25T09:58:56.795Z,1.00
2017-12-25T10:01:23.287Z,0.70
2017-12-25T10:03:49.467Z,0.93
2017-12-25T10:06:15.676Z,1.20
2017-12-25T10:08:41.859Z,2.10
2017-12-25T10:11:08.064Z,0.90
2017-12-25T10:13:34.988Z,1.83
2017-12-25T10:16:01.200Z,0.80
2017-12-25T10:18:27.383Z,1.13
2017-12-25T10:20:53.588Z,0.83
2017-12-25T10:23:20.513Z,0.70
2017-12-25T10:25:46.725Z,1.03
2017-12-25T10:28:12.904Z,0.90
2017-12-25T10:30:40.105Z,2.53
2017-12-25T10:33:06.291Z,1.53
2017-12-25T10:35:32.472Z,1.47
2017-12-25T10:37:58.680Z,0.80
2017-12-25T10:40:24.860Z,0.73
2017-12-25T10:42:51.803Z,0.80
2017-12-25T10:45:18.727Z,0.70
2017-12-25T10:47:46.064Z,0.80
2017-12-25T10:50:12.273Z,0.60
2017-12-25T10:52:38.450Z,0.50
2017-12-25T10:55:04.659Z,2.57
2017-12-25T10:57:30.843Z,0.63
2017-12-25T10:59:57.044Z,0.80
2017-12-25T11:02:23.967Z,0.70
2017-12-25T11:04:50.943Z,8.70
2017-12-25T11:07:17.871Z,0.83
2017-12-25T11:09:44.083Z,2.20
2017-12-25T11:12:10.276Z,0.70
2017-12-25T11:14:36.480Z,2.10
2017-12-25T11:17:03.407Z,0.57
2017-12-25T11:19:29.612Z,2.23
2017-12-25T11:21:55.795Z,0.80
2017-12-25T11:24:22.000Z,0.63
2017-12-25T11:26:48.236Z,0.60
2017-12-25T11:29:15.180Z,0.50
2017-12-25T11:31:42.109Z,0.73
2017-12-25T11:34:08.440Z,0.80
2017-12-25T11:36:34.623Z,1.00
2017-12-25T11:39:00.799Z,1.03
2017-12-25T11:41:27.003Z,0.60
2017-12-25T11:43:53.192Z,0.50
2017-12-25T11:46:19.396Z,0.50
2017-12-25T11:48:46.343Z,1.17
2017-12-25T11:51:13.664Z,0.83
2017-12-25T11:53:39.853Z,0.60
2017-12-25T11:56:06.032Z,0.77
2017-12-25T11:58:32.244Z,0.60
2017-12-25T12:00:58.448Z,0.67
2017-12-25T12:03:24.656Z,0.80
2017-12-25T12:05:50.839Z,1.17
2017-12-25T12:08:17.338Z,0.60
2017-12-25T12:10:43.524Z,1.53
2017-12-25T12:13:09.736Z,0.60
2017-12-25T12:15:35.924Z,1.03
2017-12-25T12:18:02.159Z,0.80
2017-12-25T12:20:28.340Z,0.80
2017-12-25T12:22:55.287Z,0.87
2017-12-25T12:25:22.244Z,1.00
2017-12-25T12:27:48.444Z,0.87
2017-12-25T12:30:14.653Z,1.43
2017-12-25T12:32:40.859Z,0.97
2017-12-25T12:35:07.061Z,0.70
2017-12-25T12:37:33.987Z,1.63
2017-12-25T12:40:00.818Z,0.83
2017-12-25T12:42:27.780Z,0.80
2017-12-25T12:44:54.711Z,1.00
2017-12-25T12:47:20.924Z,2.93
2017-12-25T12:49:47.131Z,1.27
2017-12-25T12:52:13.569Z,1.10
2017-12-25T12:54:39.755Z,1.10
2017-12-25T12:57:06.676Z,1.30
2017-12-25T12:59:32.880Z,1.63
2017-12-25T13:01:59.060Z,2.03
2017-12-25T13:04:26.020Z,1.93
2017-12-25T13:06:52.199Z,1.10
2017-12-25T13:09:18.407Z,1.50
2017-12-25T13:11:44.595Z,1.27
2017-12-25T13:14:11.573Z,0.97
2017-12-25T13:16:37.767Z,1.40
2017-12-25T13:19:04.695Z,4.07
2017-12-25T13:21:31.648Z,1.50
2017-12-25T13:23:58.600Z,1.40
2017-12-25T13:26:25.527Z,3.93
2017-12-25T13:28:52.536Z,2.30
2017-12-25T13:31:18.721Z,1.37
2017-12-25T13:33:45.932Z,3.00
2017-12-25T13:36:12.125Z,1.47
2017-12-25T13:38:38.307Z,1.60
2017-12-25T13:41:04.527Z,1.20
2017-12-25T13:43:30.704Z,1.70
2017-12-25T13:45:56.884Z,1.27
2017-12-25T13:48:23.096Z,2.33
2017-12-25T13:50:50.088Z,1.40
2017-12-25T13:53:17.007Z,1.30
2017-12-25T13:55:43.425Z,1.10
2017-12-25T13:58:09.607Z,1.57
2017-12-25T14:00:36.531Z,1.20
2017-12-25T14:03:02.923Z,2.40
2017-12-25T14:05:29.104Z,1.70
2017-12-25T14:07:56.028Z,1.90
2017-12-25T14:10:22.236Z,1.83
2017-12-25T14:12:48.419Z,1.20
2017-12-25T14:15:14.620Z,2.17
2017-12-25T14:17:40.906Z,1.20
2017-12-25T14:20:07.119Z,2.07
2017-12-25T14:22:33.312Z,1.13
2017-12-25T14:25:00.260Z,1.37
2017-12-25T14:27:27.188Z,1.10
2017-12-25T14:29:53.407Z,1.40
2017-12-25T14:32:19.592Z,2.10
2017-12-25T14:34:45.775Z,1.67
2017-12-25T14:37:11.991Z,1.10
2017-12-25T14:39:38.176Z,1.90
2017-12-25T14:42:04.400Z,1.80
2017-12-25T14:44:30.580Z,1.20
2017-12-25T14:46:56.760Z,1.70
2017-12-25T14:49:23.132Z,2.77
2017-12-25T14:51:49.339Z,1.37
2017-12-25T14:54:15.542Z,3.27
2017-12-25T14:56:41.723Z,0.83
2017-12-25T14:59:07.928Z,1.23
2017-12-25T15:01:34.119Z,1.67
2017-12-25T15:04:01.067Z,1.23
2017-12-25T15:06:27.998Z,2.80
2017-12-25T15:08:54.947Z,1.47
2017-12-25T15:11:21.887Z,1.23
2017-12-25T15:13:48.124Z,2.90
2017-12-25T15:16:15.051Z,2.23
2017-12-25T15:18:41.260Z,0.97
2017-12-25T15:21:07.464Z,1.63
2017-12-25T15:23:33.658Z,3.60
2017-12-25T15:26:00.579Z,2.80
2017-12-25T15:28:26.760Z,1.93
2017-12-25T15:30:53.304Z,1.17
2017-12-25T15:33:19.489Z,5.43
2017-12-25T15:35:46.415Z,1.57
2017-12-25T15:38:12.652Z,1.97
2017-12-25T15:40:38.832Z,1.87
2017-12-25T15:43:05.016Z,2.30
2017-12-25T15:45:31.223Z,2.10
2017-12-25T15:47:59.259Z,2.90
2017-12-25T15:50:25.461Z,2.30
2017-12-25T15:52:52.384Z,2.30
2017-12-25T15:55:18.623Z,2.90
2017-12-25T15:57:45.548Z,1.30
2017-12-25T16:00:12.500Z,1.67
2017-12-25T16:02:40.192Z,2.40
2017-12-25T16:05:07.139Z,1.73
2017-12-25T16:07:34.112Z,2.10
2017-12-25T16:10:07.428Z,2.07
2017-12-25T16:12:33.628Z,1.60
2017-12-25T16:14:59.811Z,1.83
2017-12-25T16:17:26.047Z,1.40
2017-12-25T16:19:52.328Z,3.17
2017-12-25T16:22:18.881Z,2.30
2017-12-25T16:24:45.072Z,2.30
2017-12-25T16:27:11.267Z,1.67
2017-12-25T16:29:38.219Z,1.83
2017-12-25T16:32:05.143Z,2.90
2017-12-25T16:34:31.347Z,1.60
2017-12-25T16:36:57.529Z,2.40
2017-12-25T16:39:24.476Z,3.27
2017-12-25T16:41:51.404Z,2.43
2017-12-25T16:44:17.611Z,1.53
2017-12-25T16:46:43.791Z,2.07
2017-12-25T16:49:10.000Z,1.97
2017-12-25T16:51:36.947Z,3.30
2017-12-25T16:54:03.928Z,4.30
2017-12-25T16:56:30.111Z,7.33
2017-12-25T16:58:56.309Z,3.67
2017-12-25T17:01:22.530Z,3.13
2017-12-25T17:03:48.745Z,2.37
2017-12-25T17:06:14.923Z,2.50
2017-12-25T17:08:41.129Z,3.03
2017-12-25T17:11:07.311Z,1.87
2017-12-25T17:13:33.690Z,2.70
2017-12-25T17:15:59.876Z,1.70
2017-12-25T17:18:26.064Z,2.93
2017-12-25T17:20:52.271Z,3.63
2017-12-25T17:23:18.471Z,4.10
2017-12-25T17:25:44.680Z,3.47
2017-12-25T17:28:11.615Z,2.87
2017-12-25T17:30:38.724Z,3.80
2017-12-25T17:33:04.908Z,1.80
2017-12-25T17:35:31.892Z,4.17
2017-12-25T17:37:58.108Z,3.70
2017-12-25T17:40:24.293Z,4.77
2017-12-25T17:42:51.219Z,5.43
2017-12-25T17:45:18.933Z,4.87
2017-12-25T17:47:45.120Z,5.70
2017-12-25T17:50:11.372Z,6.00
2017-12-25T17:52:38.319Z,4.57
2017-12-25T17:55:05.248Z,2.83
2017-12-25T17:57:32.208Z,3.07
2017-12-25T17:59:59.192Z,2.43
2017-12-25T18:02:25.541Z,2.60
2017-12-25T18:04:51.724Z,6.53
2017-12-25T18:07:17.907Z,7.97
2017-12-25T18:09:44.108Z,6.50
2017-12-25T18:12:10.291Z,4.87
2017-12-25T18:14:37.403Z,5.70
2017-12-25T18:17:03.588Z,3.23
2017-12-25T18:19:29.771Z,7.13
2017-12-25T18:21:55.975Z,6.10
2017-12-25T18:24:22.213Z,5.33
2017-12-25T18:26:48.731Z,8.03
2017-12-25T18:29:14.908Z,4.50
2017-12-25T18:31:41.116Z,8.10
2017-12-25T18:34:07.299Z,7.17
2017-12-25T18:36:33.504Z,2.83
2017-12-25T18:39:00.427Z,3.07
2017-12-25T18:41:26.632Z,2.60
2017-12-25T18:43:52.811Z,4.10
2017-12-25T18:46:20.305Z,3.20
2017-12-25T18:48:46.532Z,8.63
2017-12-25T18:51:12.735Z,2.90
2017-12-25T18:53:39.684Z,3.50
2017-12-25T18:56:06.607Z,5.83
2017-12-25T18:58:33.114Z,5.83
2017-12-25T19:00:59.300Z,4.03
2017-12-25T19:03:25.480Z,6.97
2017-12-25T19:05:51.689Z,7.10
2017-12-25T19:08:17.923Z,8.40
2017-12-25T19:10:44.175Z,4.10
2017-12-25T19:13:10.408Z,9.13
2017-12-25T19:15:36.596Z,5.03
2017-12-25T19:18:02.853Z,5.23
2017-12-25T19:20:29.139Z,8.07
2017-12-25T19:22:55.387Z,5.13
2017-12-25T19:25:21.643Z,3.63
2017-12-25T19:27:48.735Z,5.30
2017-12-25T19:30:14.952Z,5.90
2017-12-25T19:32:41.912Z,6.20
2017-12-25T19:35:08.096Z,4.87
2017-12-25T19:37:34.346Z,5.80
2017-12-25T19:40:01.279Z,8.33
2017-12-25T19:42:28.232Z,9.77
2017-12-25T19:44:54.488Z,2.90
2017-12-25T19:47:21.459Z,6.67
2017-12-25T19:49:47.811Z,10.57
2017-12-25T19:52:14.011Z,4.33
2017-12-25T19:54:40.247Z,4.27
2017-12-25T19:57:06.537Z,3.93
2017-12-25T19:59:33.515Z,5.20
2017-12-25T20:01:59.691Z,4.93
2017-12-25T20:04:25.951Z,6.87
2017-12-25T20:06:52.876Z,6.27
2017-12-25T20:09:20.618Z,5.20
2017-12-25T20:11:46.892Z,9.07
2017-12-25T20:14:14.012Z,5.30
2017-12-25T20:16:40.995Z,5.00
2017-12-25T20:19:07.920Z,8.30
2017-12-25T20:21:34.581Z,5.80
2017-12-25T20:24:01.623Z,7.60
2017-12-25T20:26:28.599Z,16.17
2017-12-25T20:28:54.900Z,10.33
2017-12-25T20:31:21.119Z,6.03
2017-12-25T20:33:48.373Z,10.57
2017-12-25T20:36:15.356Z,6.40
2017-12-25T20:38:41.588Z,10.27
2017-12-25T20:41:07.844Z,4.70
2017-12-25T20:43:34.812Z,12.73
2017-12-25T20:46:01.079Z,9.93
2017-12-25T20:48:27.259Z,15.60
2017-12-25T20:50:55.270Z,8.27
2017-12-25T20:53:22.272Z,9.90
2017-12-25T20:55:48.817Z,10.77
2017-12-25T20:58:15.107Z,7.93
2017-12-25T21:00:41.362Z,11.73
2017-12-25T21:03:07.603Z,10.30
2017-12-25T21:05:33.935Z,9.37
2017-12-25T21:08:00.167Z,16.20
2017-12-25T21:10:26.428Z,8.60
2017-12-25T21:12:53.407Z,13.57
2017-12-25T21:15:19.653Z,13.30
2017-12-25T21:17:46.001Z,13.97
2017-12-25T21:20:12.254Z,19.77
2017-12-25T21:22:39.228Z,15.57
2017-12-25T21:25:06.515Z,13.07
2017-12-25T21:27:32.727Z,11.67
2017-12-25T21:29:59.003Z,11.97
2017-12-25T21:32:25.250Z,11.67
2017-12-25T21:34:52.227Z,16.10
2017-12-25T21:37:18.503Z,8.10
2017-12-25T21:39:44.724Z,14.10
2017-12-25T21:42:10.983Z,13.93
2017-12-25T21:44:37.967Z,10.93
2017-12-25T21:47:04.244Z,15.87
2017-12-25T21:49:30.475Z,12.60
2017-12-25T21:51:56.680Z,15.80
2017-12-25T21:54:22.935Z,9.73
2017-12-25T21:56:49.340Z,8.93
2017-12-25T21:59:15.580Z,15.13
2017-12-25T22:01:41.811Z,10.63
2017-12-25T22:04:08.072Z,12.13
2017-12-25T22:06:34.996Z,8.87
2017-12-25T22:09:01.209Z,14.33
2017-12-25T22:11:27.444Z,9.60
2017-12-25T22:13:53.743Z,9.73
2017-12-25T22:16:19.991Z,8.77
2017-12-25T22:18:46.234Z,13.97
2017-12-25T22:21:12.416Z,13.03
2017-12-25T22:23:38.679Z,14.80
2017-12-25T22:26:04.913Z,12.20
2017-12-25T22:28:31.135Z,14.33
2017-12-25T22:31:05.887Z,16.87
2017-12-25T22:33:32.142Z,18.20
2017-12-25T22:35:59.111Z,21.70
2017-12-25T22:38:25.321Z,17.30
2017-12-25T22:40:51.612Z,17.00
2017-12-25T22:43:17.791Z,12.33
2017-12-25T22:45:44.055Z,13.00
2017-12-25T22:48:10.323Z,13.50
2017-12-25T22:50:36.507Z,15.40
2017-12-25T22:53:02.761Z,11.30
2017-12-25T22:55:29.019Z,15.83
2017-12-25T22:57:55.995Z,18.90
2017-12-25T23:00:22.242Z,21.63
2017-12-25T23:02:48.476Z,19.77
2017-12-25T23:05:14.722Z,18.63
2017-12-25T23:07:41.371Z,12.50
2017-12-25T23:10:07.602Z,14.37
2017-12-25T23:12:33.867Z,22.33
2017-12-25T23:15:00.843Z,12.43
2017-12-25T23:17:27.050Z,24.23
2017-12-25T23:19:53.280Z,17.30
2017-12-25T23:22:19.539Z,17.80
2017-12-25T23:24:45.758Z,20.50
2017-12-25T23:27:12.015Z,15.63
2017-12-25T23:29:38.242Z,18.30
2017-12-25T23:32:04.508Z,23.90
2017-12-25T23:34:31.483Z,15.47
2017-12-25T23:36:57.710Z,24.67
2017-12-25T23:39:23.916Z,31.17
2017-12-25T23:41:50.835Z,27.17
2017-12-25T23:44:17.085Z,25.50
2017-12-25T23:46:44.072Z,20.23
2017-12-25T23:49:10.288Z,19.23
2017-12-25T23:51:36.514Z,26.57
2017-12-25T23:54:02.784Z,17.40
2017-12-25T23:56:29.799Z,24.73
2017-12-25T23:58:56.055Z,35.40
